Aérodrome :
LOGIN :

S'inscrire | Disclaimer

   EN    FR    IT 

 










Légende :    VFR   VFR Marginal   IFR   IFR Intensif   IFR Très Intensif
Visi : 
Plafond : 
>= 8 km
>= 3000ft
5 à 8 km
1000 à 3000 ft
1500m à 5 km
500 à 1000 ft
800 à 1500m
200 à 500 ft
< 800m
< 200 ft
Symboles :   Orages  Brouillard  Fortes neiges  Fortes précipitations  Vent > 20 kt
SIGMETs :   Divers  Orages  Givrage  Turbulence  Onde Orograph.  Cendres Volcan.






- Altitude de l'aérodrome : 1830 ft


EBLB - Butgenbach Elsenborn

DERNIER METAR :
  • 061425Z AUTO 22011KT 9999 OVC005/// 03/02 Q1010 YLO

METARs EXPIRÉS :
  • 061355Z AUTO 22010KT 3400 -RA OVC006/// 03/02 Q1010 YLO
  • 061339Z AUTO 22011KT 6000 -RA OVC006/// 03/02 Q1010 YLO
  • 061325Z AUTO 21011KT 7000 -RA OVC007/// 03/02 Q1010 GRN
  • 061310Z AUTO 21010G20KT 7000 -RA SCT007/// OVC019/// 03/02 Q1011 GRN
  • 061255Z AUTO 21009KT 7000 -RA FEW005/// OVC020/// 02/02 Q1011 WHT
  • 061244Z AUTO 21010KT 8000 -RA FEW005/// OVC021/// 02/02 Q1011 WHT
  • 061155Z AUTO 21009KT 9999 -RA SCT005/// OVC021/// 02/02 Q1012 YLO

Prévision TAF périmée.



MET'MAP, la Météo Aéronautique d'un coup d'oeil ! - Copyright ORBIFLY Décembre 2007 - Disclaimer

ORBIFLY MET'MAP TEAM :

Programmation & Développement : Alexandra Zaïnal
Sur une idée originale de : Baudouin d'Aumeries
Assistance à la programmation : Marc-Olivier Méhu
Soutien technique & logistique : Manuel Goepfert

Contact : metmap@orbifly.com




SOURCES & CREDITS :

   NOAA